Time;durP1;ratioP1;P1;durP2;ratioP2;P2;SDS_P1;SDS_P2;PMS_P1;PMS_P2;Temp;Humidity;BMP_temperature;BMP_pressure;BME280_temperature;BME280_humidity;BME280_pressure;Samples;Min_cycle;Max_cycle;Signal;HPM_P1;HPM_P2
2022/09/14 00:00:26;;;;;;;2.60;1.70;;;;;;;;;;5158544;27;20053;-58
2022/09/14 00:02:52;;;;;;;2.65;1.65;;;;;;;;;;5158719;27;20027;-58
2022/09/14 00:05:18;;;;;;;4.38;2.00;;;;;;;;;;5159022;27;20070;-58
2022/09/14 00:07:44;;;;;;;4.43;1.63;;;;;;;;;;5158645;27;20026;-58
2022/09/14 00:10:10;;;;;;;2.33;1.27;;;;;;;;;;5158613;27;20135;-58
2022/09/14 00:12:35;;;;;;;5.88;1.90;;;;;;;;;;5159027;27;20041;-58
2022/09/14 00:15:02;;;;;;;3.53;1.83;;;;;;;;;;5159329;27;20060;-58
2022/09/14 00:17:28;;;;;;;6.93;1.60;;;;;;;;;;5158445;27;20023;-58
2022/09/14 00:19:54;;;;;;;3.08;1.73;;;;;;;;;;5158978;27;20364;-58
2022/09/14 00:22:20;;;;;;;5.32;1.50;;;;;;;;;;5158105;27;20641;-58
2022/09/14 00:24:46;;;;;;;3.30;1.38;;;;;;;;;;5158928;27;20102;-58
2022/09/14 00:27:11;;;;;;;2.15;1.20;;;;;;;;;;5158476;27;20029;-58
2022/09/14 00:29:37;;;;;;;5.72;1.50;;;;;;;;;;5158466;27;20359;-58
2022/09/14 00:32:03;;;;;;;2.30;1.60;;;;;;;;;;5158111;27;20437;-58
2022/09/14 00:34:29;;;;;;;2.20;1.65;;;;;;;;;;5158426;27;20025;-58
2022/09/14 00:36:55;;;;;;;3.38;1.30;;;;;;;;;;5158085;27;20040;-58
2022/09/14 00:39:22;;;;;;;2.63;1.77;;;;;;;;;;5158031;27;20022;-58
2022/09/14 00:41:49;;;;;;;7.78;1.80;;;;;;;;;;5158187;27;20525;-58
2022/09/14 00:44:15;;;;;;;7.10;1.70;;;;;;;;;;5158753;27;20026;-58
2022/09/14 00:46:48;;;;;;;2.70;1.55;;;;;;;;;;5157893;27;20448;-58
2022/09/14 00:49:17;;;;;;;6.75;1.50;;;;;;;;;;5158139;27;20368;-58
2022/09/14 00:51:47;;;;;;;2.40;1.50;;;;;;;;;;5157856;27;20051;-58
2022/09/14 00:54:13;;;;;;;3.70;1.80;;;;;;;;;;5157851;27;20075;-58
2022/09/14 00:56:39;;;;;;;2.08;1.40;;;;;;;;;;5157062;27;20789;-58
2022/09/14 00:59:09;;;;;;;4.10;1.70;;;;;;;;;;5157615;27;20361;-58
2022/09/14 01:01:35;;;;;;;6.43;2.00;;;;;;;;;;5158387;27;20023;-58
2022/09/14 01:04:01;;;;;;;2.88;1.85;;;;;;;;;;5157841;27;20213;-58
2022/09/14 01:06:36;;;;;;;2.30;1.10;;;;;;;;;;5158016;27;20029;-58
2022/09/14 01:09:20;;;;;;;2.50;1.50;;;;;;;;;;5157488;27;20018;-58
2022/09/14 01:11:49;;;;;;;2.40;1.73;;;;;;;;;;5157298;27;20115;-58
2022/09/14 01:14:37;;;;;;;2.33;1.77;;;;;;;;;;5157427;27;20022;-58
2022/09/14 01:17:03;;;;;;;4.03;1.95;;;;;;;;;;5157294;27;20111;-58
2022/09/14 01:19:57;;;;;;;2.25;1.67;;;;;;;;;;5157257;27;20054;-58
2022/09/14 01:22:26;;;;;;;3.80;1.52;;;;;;;;;;5157260;27;20460;-58
2022/09/14 01:24:54;;;;;;;2.50;1.90;;;;;;;;;;5157779;27;20019;-58
2022/09/14 01:27:24;;;;;;;2.85;2.25;;;;;;;;;;5157045;27;20038;-58
2022/09/14 01:29:57;;;;;;;5.85;2.55;;;;;;;;;;5157414;27;20349;-58
2022/09/14 01:32:35;;;;;;;10.27;4.07;;;;;;;;;;5157168;27;20166;-60
2022/09/14 01:35:06;;;;;;;6.22;2.30;;;;;;;;;;5156964;27;20071;-60
2022/09/14 01:37:47;;;;;;;4.45;2.28;;;;;;;;;;5156873;27;20018;-60
2022/09/14 01:40:21;;;;;;;6.40;1.13;;;;;;;;;;5157281;27;20023;-61
2022/09/14 01:42:50;;;;;;;4.28;1.17;;;;;;;;;;5156840;27;20364;-61
2022/09/14 01:45:18;;;;;;;2.47;1.10;;;;;;;;;;5157291;27;20023;-61
2022/09/14 01:47:53;;;;;;;4.72;1.80;;;;;;;;;;5156929;27;20341;-61
2022/09/14 01:50:34;;;;;;;4.60;1.98;;;;;;;;;;5156544;27;20026;-61
2022/09/14 01:53:05;;;;;;;5.75;1.80;;;;;;;;;;5156604;27;20399;-61
2022/09/14 01:55:44;;;;;;;5.78;2.85;;;;;;;;;;5157079;27;20064;-61
2022/09/14 01:58:36;;;;;;;2.83;1.45;;;;;;;;;;5156145;27;20527;-61
2022/09/14 02:01:03;;;;;;;1.98;1.27;;;;;;;;;;5153506;27;20046;-61
2022/09/14 02:03:31;;;;;;;3.97;1.52;;;;;;;;;;5156977;27;20026;-61
2022/09/14 02:06:05;;;;;;;3.45;1.75;;;;;;;;;;5156324;27;20029;-61
2022/09/14 02:08:32;;;;;;;3.00;1.20;;;;;;;;;;5155725;27;20114;-62
2022/09/14 02:10:58;;;;;;;3.03;1.35;;;;;;;;;;5156965;27;20026;-61
2022/09/14 02:13:24;;;;;;;3.05;1.73;;;;;;;;;;5156533;27;20029;-61
2022/09/14 02:15:50;;;;;;;2.65;1.33;;;;;;;;;;5156461;27;20030;-61
2022/09/14 02:18:16;;;;;;;3.53;1.50;;;;;;;;;;5156740;27;20031;-61
2022/09/14 02:20:58;;;;;;;2.83;1.55;;;;;;;;;;5156055;27;20045;-61
2022/09/14 02:23:24;;;;;;;2.42;1.45;;;;;;;;;;5156108;27;20368;-61
2022/09/14 02:25:50;;;;;;;2.70;1.50;;;;;;;;;;5156299;27;20031;-61
2022/09/14 02:28:16;;;;;;;2.13;1.50;;;;;;;;;;5156251;27;20392;-61
2022/09/14 02:30:54;;;;;;;5.25;2.10;;;;;;;;;;5155846;27;20081;-61
2022/09/14 02:33:24;;;;;;;3.35;2.05;;;;;;;;;;5156249;27;20035;-61
2022/09/14 02:35:53;;;;;;;3.78;1.92;;;;;;;;;;5156143;27;20023;-61
2022/09/14 02:38:19;;;;;;;4.75;2.05;;;;;;;;;;5156054;27;20470;-61
2022/09/14 02:41:09;;;;;;;3.45;2.13;;;;;;;;;;5155463;27;20055;-61
2022/09/14 02:43:42;;;;;;;2.97;1.85;;;;;;;;;;5156349;27;20531;-61
2022/09/14 02:46:23;;;;;;;2.90;2.10;;;;;;;;;;5156292;27;20030;-61
2022/09/14 02:49:03;;;;;;;5.13;2.55;;;;;;;;;;5156018;27;20027;-61
2022/09/14 02:51:42;;;;;;;5.38;2.05;;;;;;;;;;5155765;27;20062;-61
2022/09/14 02:54:15;;;;;;;5.45;2.83;;;;;;;;;;5156470;27;20066;-61
2022/09/14 02:56:41;;;;;;;3.90;2.60;;;;;;;;;;5155610;27;20054;-61
2022/09/14 02:59:07;;;;;;;2.92;2.33;;;;;;;;;;5156130;27;20051;-61
2022/09/14 03:01:33;;;;;;;4.60;2.72;;;;;;;;;;5155548;27;20018;-61
2022/09/14 03:03:59;;;;;;;5.30;2.40;;;;;;;;;;5155908;27;20078;-61
2022/09/14 03:06:25;;;;;;;3.92;2.78;;;;;;;;;;5155545;27;20023;-61
2022/09/14 03:08:51;;;;;;;4.32;2.35;;;;;;;;;;5155452;27;20026;-61
2022/09/14 03:11:17;;;;;;;3.13;2.33;;;;;;;;;;5155435;27;20031;-61
2022/09/14 03:13:43;;;;;;;4.10;2.75;;;;;;;;;;5156006;27;20137;-61
2022/09/14 03:16:13;;;;;;;3.22;2.53;;;;;;;;;;5155412;27;20023;-61
2022/09/14 03:18:39;;;;;;;3.25;2.47;;;;;;;;;;5156320;27;20027;-61
2022/09/14 03:21:06;;;;;;;3.17;2.58;;;;;;;;;;5159621;27;20098;-61
2022/09/14 03:23:39;;;;;;;3.60;2.88;;;;;;;;;;5159525;27;20468;-61
2022/09/14 03:26:06;;;;;;;4.05;3.00;;;;;;;;;;5160387;27;20026;-61
2022/09/14 03:28:32;;;;;;;6.85;2.70;;;;;;;;;;5159413;27;20023;-61
2022/09/14 03:31:01;;;;;;;5.18;2.45;;;;;;;;;;5159360;27;20172;-61
2022/09/14 03:33:27;;;;;;;3.13;2.35;;;;;;;;;;5159693;27;20052;-61
2022/09/14 03:35:53;;;;;;;2.72;2.17;;;;;;;;;;5159862;27;20145;-61
2022/09/14 03:38:20;;;;;;;3.55;2.80;;;;;;;;;;5159313;27;20456;-61
2022/09/14 03:40:47;;;;;;;4.70;2.78;;;;;;;;;;5159735;27;20030;-61
2022/09/14 03:43:13;;;;;;;3.67;2.40;;;;;;;;;;5159217;27;20026;-61
2022/09/14 03:45:39;;;;;;;2.97;1.92;;;;;;;;;;5159418;27;20027;-61
2022/09/14 03:48:06;;;;;;;5.97;2.80;;;;;;;;;;5159348;27;20029;-61
2022/09/14 03:50:32;;;;;;;2.92;2.33;;;;;;;;;;5158693;27;20481;-61
2022/09/14 03:52:58;;;;;;;4.63;2.67;;;;;;;;;;5159499;27;20031;-61
2022/09/14 03:55:25;;;;;;;4.43;2.97;;;;;;;;;;5158929;27;20106;-61
2022/09/14 03:57:54;;;;;;;4.30;2.78;;;;;;;;;;5159142;27;20026;-61
2022/09/14 04:00:21;;;;;;;3.55;3.00;;;;;;;;;;5159173;27;20033;-61
2022/09/14 04:02:47;;;;;;;4.93;2.95;;;;;;;;;;5159311;27;20090;-61
2022/09/14 04:05:13;;;;;;;3.70;2.20;;;;;;;;;;5159142;27;20023;-61
2022/09/14 04:07:38;;;;;;;3.92;2.85;;;;;;;;;;5158753;27;20025;-61
2022/09/14 04:10:05;;;;;;;8.02;3.50;;;;;;;;;;5158940;27;20019;-61
2022/09/14 04:12:35;;;;;;;7.30;3.97;;;;;;;;;;5159017;27;20054;-61
2022/09/14 04:15:01;;;;;;;4.35;3.15;;;;;;;;;;5158642;27;20026;-61
2022/09/14 04:17:27;;;;;;;3.17;2.53;;;;;;;;;;5158524;27;20019;-61
2022/09/14 04:19:53;;;;;;;6.60;3.20;;;;;;;;;;5158984;27;20025;-61
2022/09/14 04:22:19;;;;;;;5.68;3.53;;;;;;;;;;5158715;27;20375;-61
2022/09/14 04:24:46;;;;;;;4.55;2.63;;;;;;;;;;5159021;27;20462;-61
2022/09/14 04:27:12;;;;;;;4.63;3.88;;;;;;;;;;5158205;27;20030;-61
2022/09/14 04:29:38;;;;;;;5.25;3.95;;;;;;;;;;5158303;27;20022;-61
2022/09/14 04:32:04;;;;;;;7.85;4.00;;;;;;;;;;5157404;27;20059;-61
2022/09/14 04:34:30;;;;;;;4.18;3.78;;;;;;;;;;5158495;27;20368;-61
2022/09/14 04:36:56;;;;;;;5.18;4.00;;;;;;;;;;5158663;27;20019;-61
2022/09/14 04:39:22;;;;;;;6.28;3.42;;;;;;;;;;5158036;27;20019;-61
2022/09/14 04:41:48;;;;;;;4.93;3.72;;;;;;;;;;5158243;27;20110;-61
2022/09/14 04:44:14;;;;;;;5.57;4.65;;;;;;;;;;5157938;27;20155;-61
2022/09/14 04:46:41;;;;;;;5.28;4.35;;;;;;;;;;5157830;27;20380;-61
2022/09/14 04:49:07;;;;;;;5.82;4.72;;;;;;;;;;5158660;27;20022;-61
2022/09/14 04:51:34;;;;;;;9.00;4.43;;;;;;;;;;5157781;27;20058;-61
2022/09/14 04:54:01;;;;;;;5.15;4.65;;;;;;;;;;5158389;27;20367;-61
2022/09/14 04:56:27;;;;;;;5.53;4.82;;;;;;;;;;5157764;27;20369;-61
2022/09/14 04:58:56;;;;;;;6.15;4.50;;;;;;;;;;5157704;27;20455;-61
2022/09/14 05:01:23;;;;;;;6.05;4.95;;;;;;;;;;5157295;27;20471;-61
2022/09/14 05:03:50;;;;;;;6.00;4.40;;;;;;;;;;5157952;27;20192;-61
2022/09/14 05:06:17;;;;;;;5.13;4.53;;;;;;;;;;5158139;27;20022;-61
2022/09/14 05:08:43;;;;;;;5.32;4.70;;;;;;;;;;5157422;27;20345;-61
2022/09/14 05:11:11;;;;;;;9.15;5.57;;;;;;;;;;5157158;27;20045;-61
2022/09/14 05:13:37;;;;;;;5.18;4.30;;;;;;;;;;5158006;27;20030;-61
2022/09/14 05:16:09;;;;;;;4.68;4.28;;;;;;;;;;5157381;27;20022;-61
2022/09/14 05:18:35;;;;;;;4.78;4.22;;;;;;;;;;5157304;27;20532;-61
2022/09/14 05:21:02;;;;;;;7.10;5.35;;;;;;;;;;5157187;27;20038;-61
2022/09/14 05:23:28;;;;;;;5.45;4.75;;;;;;;;;;5157729;27;20395;-61
2022/09/14 05:25:54;;;;;;;6.18;4.65;;;;;;;;;;5157200;27;20023;-60
2022/09/14 05:28:20;;;;;;;6.50;4.53;;;;;;;;;;5157048;27;20058;-60
2022/09/14 05:30:46;;;;;;;7.85;4.05;;;;;;;;;;5157030;27;20018;-60
2022/09/14 05:33:12;;;;;;;12.27;5.22;;;;;;;;;;5156770;27;20031;-60
2022/09/14 05:35:38;;;;;;;5.35;4.22;;;;;;;;;;5156831;27;20035;-60
2022/09/14 05:38:04;;;;;;;6.40;5.03;;;;;;;;;;5156849;27;20026;-60
2022/09/14 05:40:30;;;;;;;6.13;4.82;;;;;;;;;;5156673;27;20027;-60
2022/09/14 05:42:56;;;;;;;4.30;3.90;;;;;;;;;;5156966;27;20033;-60
2022/09/14 05:45:22;;;;;;;8.35;5.28;;;;;;;;;;5156753;27;20121;-60
2022/09/14 05:47:48;;;;;;;5.82;5.00;;;;;;;;;;5156976;27;20058;-60
2022/09/14 05:50:14;;;;;;;5.70;4.70;;;;;;;;;;5156527;27;20431;-60
2022/09/14 05:52:40;;;;;;;5.38;4.30;;;;;;;;;;5157284;27;20049;-60
2022/09/14 05:55:06;;;;;;;4.45;4.03;;;;;;;;;;5156894;27;20015;-60
2022/09/14 05:57:33;;;;;;;9.02;5.55;;;;;;;;;;5156153;27;20468;-60
2022/09/14 05:59:59;;;;;;;5.78;4.38;;;;;;;;;;5157023;27;20030;-60
2022/09/14 06:02:25;;;;;;;4.25;3.78;;;;;;;;;;5156319;27;20031;-60
2022/09/14 06:04:51;;;;;;;4.38;3.60;;;;;;;;;;5156745;27;20040;-60
2022/09/14 06:07:17;;;;;;;6.25;4.13;;;;;;;;;;5156224;27;20021;-60
2022/09/14 06:09:43;;;;;;;4.13;3.63;;;;;;;;;;5156749;27;20019;-60
2022/09/14 06:12:09;;;;;;;6.80;4.30;;;;;;;;;;5156009;27;20034;-60
2022/09/14 06:14:35;;;;;;;6.55;3.78;;;;;;;;;;5155977;27;20034;-60
2022/09/14 06:17:01;;;;;;;6.18;4.45;;;;;;;;;;5156816;27;20019;-60
2022/09/14 06:19:27;;;;;;;7.03;4.10;;;;;;;;;;5156481;27;20054;-60
2022/09/14 06:21:54;;;;;;;6.13;4.43;;;;;;;;;;5155914;27;20428;-60
2022/09/14 06:24:19;;;;;;;5.22;3.42;;;;;;;;;;5156200;27;20414;-60
2022/09/14 06:26:45;;;;;;;6.43;4.10;;;;;;;;;;5156452;27;20023;-60
2022/09/14 06:29:11;;;;;;;5.75;5.07;;;;;;;;;;5156463;27;20025;-60
2022/09/14 06:31:37;;;;;;;7.65;4.30;;;;;;;;;;5155788;27;20066;-60
2022/09/14 06:34:04;;;;;;;6.97;4.20;;;;;;;;;;5156451;27;20019;-60
2022/09/14 06:36:30;;;;;;;6.97;3.55;;;;;;;;;;5155784;27;20071;-60
2022/09/14 06:38:58;;;;;;;4.95;4.00;;;;;;;;;;5155998;27;20031;-60
2022/09/14 06:41:27;;;;;;;4.45;3.47;;;;;;;;;;5155718;27;20117;-60
2022/09/14 06:43:55;;;;;;;6.30;4.17;;;;;;;;;;5156370;27;20069;-60
2022/09/14 06:46:22;;;;;;;7.25;3.72;;;;;;;;;;5156178;27;20249;-60
2022/09/14 06:49:09;;;;;;;4.90;3.53;;;;;;;;;;5155544;27;20026;-60
2022/09/14 06:51:36;;;;;;;4.65;3.67;;;;;;;;;;5155234;27;20118;-60
2022/09/14 06:54:02;;;;;;;4.85;3.70;;;;;;;;;;5155581;27;20356;-60
2022/09/14 06:56:31;;;;;;;4.25;3.85;;;;;;;;;;5155218;27;20457;-60
2022/09/14 06:58:57;;;;;;;5.70;4.00;;;;;;;;;;5155945;27;20107;-60
2022/09/14 07:01:24;;;;;;;5.32;3.72;;;;;;;;;;5155489;27;20023;-61
2022/09/14 07:03:51;;;;;;;4.30;3.90;;;;;;;;;;5156336;27;20070;-60
2022/09/14 07:06:24;;;;;;;6.57;4.32;;;;;;;;;;5155478;27;20390;-60
2022/09/14 07:08:51;;;;;;;5.32;3.60;;;;;;;;;;5155446;27;20353;-60
2022/09/14 07:11:18;;;;;;;6.40;4.40;;;;;;;;;;5155584;27;20019;-60
2022/09/14 07:13:45;;;;;;;5.43;4.05;;;;;;;;;;5155930;27;20021;-60
2022/09/14 07:16:11;;;;;;;4.20;3.72;;;;;;;;;;5156095;27;20026;-60
2022/09/14 07:18:37;;;;;;;7.40;4.20;;;;;;;;;;5155434;27;20019;-60
2022/09/14 07:21:14;;;;;;;3.95;2.80;;;;;;;;;;5155149;27;20027;-60
2022/09/14 07:23:41;;;;;;;4.22;3.70;;;;;;;;;;5155654;27;20456;-60
2022/09/14 07:26:20;;;;;;;6.30;4.53;;;;;;;;;;5155407;27;20087;-60
2022/09/14 07:28:48;;;;;;;5.55;3.55;;;;;;;;;;5155507;27;20511;-60
2022/09/14 07:31:25;;;;;;;5.60;3.80;;;;;;;;;;5155427;27;20027;-60
2022/09/14 07:33:53;;;;;;;6.57;4.03;;;;;;;;;;5155821;27;20460;-60
2022/09/14 07:36:19;;;;;;;9.30;4.38;;;;;;;;;;5155753;27;20038;-60
2022/09/14 07:38:45;;;;;;;4.70;3.60;;;;;;;;;;5155501;27;20022;-60
2022/09/14 07:41:11;;;;;;;6.80;4.43;;;;;;;;;;5155079;27;20030;-60
2022/09/14 07:43:37;;;;;;;4.57;3.05;;;;;;;;;;5155334;27;20023;-60
2022/09/14 07:46:03;;;;;;;4.72;3.53;;;;;;;;;;5154970;27;20029;-60
2022/09/14 07:48:30;;;;;;;7.22;4.00;;;;;;;;;;5155502;27;20045;-60
2022/09/14 07:51:06;;;;;;;3.90;3.50;;;;;;;;;;5154660;27;20139;-60
2022/09/14 07:53:35;;;;;;;5.43;4.05;;;;;;;;;;5155061;27;20030;-60
2022/09/14 07:56:01;;;;;;;4.25;3.47;;;;;;;;;;5154972;27;20095;-60
2022/09/14 07:58:29;;;;;;;4.75;3.42;;;;;;;;;;5155602;27;20091;-60
2022/09/14 08:01:02;;;;;;;5.18;3.50;;;;;;;;;;5154957;27;20055;-60
2022/09/14 08:03:30;;;;;;;4.65;3.53;;;;;;;;;;5155319;27;20464;-60
2022/09/14 08:06:04;;;;;;;5.63;3.70;;;;;;;;;;5155370;27;20034;-60
2022/09/14 08:08:35;;;;;;;5.25;3.70;;;;;;;;;;5158980;27;20380;-60
2022/09/14 08:11:04;;;;;;;4.32;3.47;;;;;;;;;;5159315;27;20023;-60
2022/09/14 08:13:30;;;;;;;3.88;3.33;;;;;;;;;;5158577;27;20516;-60
2022/09/14 08:15:59;;;;;;;6.15;4.10;;;;;;;;;;5158109;27;20544;-60
2022/09/14 08:18:25;;;;;;;5.25;3.78;;;;;;;;;;5159008;27;20051;-60
2022/09/14 08:20:52;;;;;;;5.95;2.50;;;;;;;;;;5158305;27;20448;-60
2022/09/14 08:23:18;;;;;;;3.45;3.05;;;;;;;;;;5158861;27;20456;-60
2022/09/14 08:25:44;;;;;;;4.43;2.83;;;;;;;;;;5158006;27;20022;-60
2022/09/14 08:28:10;;;;;;;4.72;3.30;;;;;;;;;;5158226;27;20034;-60
2022/09/14 08:30:36;;;;;;;3.90;2.63;;;;;;;;;;5158594;27;20462;-60
2022/09/14 08:33:02;;;;;;;4.22;2.97;;;;;;;;;;5158177;27;20167;-60
2022/09/14 08:35:28;;;;;;;7.20;2.85;;;;;;;;;;5158218;27;20034;-60
2022/09/14 08:37:54;;;;;;;3.50;2.88;;;;;;;;;;5158754;27;20045;-60
2022/09/14 08:40:20;;;;;;;4.05;3.08;;;;;;;;;;5158136;27;20491;-60
2022/09/14 08:42:47;;;;;;;3.95;3.25;;;;;;;;;;5157742;27;20464;-60
2022/09/14 08:45:15;;;;;;;7.43;3.33;;;;;;;;;;5158538;27;20037;-60
2022/09/14 08:47:41;;;;;;;5.15;3.00;;;;;;;;;;5157871;27;20018;-60
2022/09/14 08:50:12;;;;;;;5.50;2.72;;;;;;;;;;5157809;27;20029;-60
2022/09/14 08:52:41;;;;;;;4.05;2.78;;;;;;;;;;5158423;27;20051;-60
2022/09/14 08:55:30;;;;;;;3.75;2.70;;;;;;;;;;5158422;27;20027;-60
2022/09/14 08:58:16;;;;;;;4.45;3.17;;;;;;;;;;5149499;27;20102;-60
2022/09/14 09:00:49;;;;;;;4.68;2.95;;;;;;;;;;5125706;27;20045;-60
2022/09/14 09:03:15;;;;;;;3.15;2.58;;;;;;;;;;5157631;27;20019;-60
2022/09/14 09:05:41;;;;;;;4.57;2.47;;;;;;;;;;5158124;27;20023;-60
2022/09/14 09:08:16;;;;;;;6.18;2.72;;;;;;;;;;5157575;27;20030;-60
2022/09/14 09:10:42;;;;;;;6.05;2.72;;;;;;;;;;5157122;27;20483;-58
2022/09/14 09:13:12;;;;;;;6.07;2.40;;;;;;;;;;5157772;27;20031;-57
2022/09/14 09:16:08;;;;;;;3.53;2.30;;;;;;;;;;5158490;27;20051;-59
2022/09/14 09:18:41;;;;;;;3.53;2.15;;;;;;;;;;5143977;27;20075;-60
2022/09/14 09:21:09;;;;;;;3.20;2.30;;;;;;;;;;5157311;27;20022;-60
2022/09/14 09:23:35;;;;;;;5.93;2.10;;;;;;;;;;5157231;27;20472;-60
2022/09/14 09:26:10;;;;;;;3.60;2.55;;;;;;;;;;5157508;27;20014;-60
2022/09/14 09:28:43;;;;;;;3.15;2.47;;;;;;;;;;5157474;27;20030;-60
2022/09/14 09:31:11;;;;;;;5.45;1.63;;;;;;;;;;5157004;27;20084;-60
2022/09/14 09:33:37;;;;;;;5.40;2.72;;;;;;;;;;5157596;27;20027;-60
2022/09/14 09:36:05;;;;;;;2.47;1.63;;;;;;;;;;5157007;27;20417;-60
2022/09/14 09:38:32;;;;;;;3.53;2.42;;;;;;;;;;5156958;27;20030;-60
2022/09/14 09:40:57;;;;;;;4.47;2.45;;;;;;;;;;5157450;27;20053;-60
2022/09/14 09:43:24;;;;;;;5.60;2.28;;;;;;;;;;5157075;27;20023;-60
2022/09/14 09:45:49;;;;;;;5.47;2.55;;;;;;;;;;5157276;27;20105;-60
2022/09/14 09:48:17;;;;;;;3.90;2.40;;;;;;;;;;5157203;27;20046;-60
2022/09/14 09:50:51;;;;;;;3.42;2.00;;;;;;;;;;5156441;27;20040;-60
2022/09/14 09:53:20;;;;;;;2.70;1.92;;;;;;;;;;5157015;27;20114;-60
2022/09/14 09:55:50;;;;;;;4.35;1.90;;;;;;;;;;5156880;27;20050;-60
2022/09/14 09:58:22;;;;;;;3.30;2.22;;;;;;;;;;5156467;27;20102;-60
2022/09/14 10:00:55;;;;;;;3.92;1.92;;;;;;;;;;5156074;27;20031;-60
2022/09/14 10:03:27;;;;;;;3.70;2.00;;;;;;;;;;5156377;27;20049;-60
2022/09/14 10:06:01;;;;;;;2.33;1.65;;;;;;;;;;5156284;27;20448;-60
2022/09/14 10:08:27;;;;;;;3.25;2.20;;;;;;;;;;5156469;27;20354;-60
2022/09/14 10:10:53;;;;;;;2.45;2.00;;;;;;;;;;5156829;27;20063;-60
2022/09/14 10:13:27;;;;;;;2.95;2.10;;;;;;;;;;5156242;27;20439;-60
2022/09/14 10:15:53;;;;;;;3.55;2.00;;;;;;;;;;5156137;27;20468;-60
2022/09/14 10:18:20;;;;;;;4.45;2.30;;;;;;;;;;5156649;27;20058;-60
2022/09/14 10:20:52;;;;;;;3.78;2.75;;;;;;;;;;5156148;27;20019;-60
2022/09/14 10:23:17;;;;;;;5.57;2.55;;;;;;;;;;5156386;27;20418;-60
2022/09/14 10:25:44;;;;;;;2.58;1.98;;;;;;;;;;5156848;27;20019;-60
2022/09/14 10:28:26;;;;;;;3.03;2.00;;;;;;;;;;5156009;27;20098;-60
2022/09/14 10:31:00;;;;;;;2.50;1.85;;;;;;;;;;5155757;27;20015;-59
2022/09/14 10:33:27;;;;;;;3.03;2.20;;;;;;;;;;5156425;27;20409;-60
2022/09/14 10:36:01;;;;;;;3.47;2.60;;;;;;;;;;5155964;27;20030;-60
2022/09/14 10:38:33;;;;;;;2.70;2.20;;;;;;;;;;5156134;27;20479;-60
2022/09/14 10:41:14;;;;;;;2.83;1.75;;;;;;;;;;5155799;27;20479;-60
2022/09/14 10:43:51;;;;;;;4.20;2.35;;;;;;;;;;5156636;27;20043;-60
2022/09/14 10:46:20;;;;;;;5.50;1.80;;;;;;;;;;5156299;27;20015;-60
2022/09/14 10:49:12;;;;;;;3.53;1.85;;;;;;;;;;5155911;27;20055;-60
2022/09/14 10:51:48;;;;;;;9.63;2.13;;;;;;;;;;5152987;27;20043;-60
2022/09/14 10:54:20;;;;;;;4.50;1.95;;;;;;;;;;5155628;27;20050;-60
2022/09/14 10:56:55;;;;;;;4.03;2.05;;;;;;;;;;5155593;27;20018;-60
2022/09/14 10:59:25;;;;;;;4.60;2.03;;;;;;;;;;5155903;27;20050;-60
2022/09/14 11:01:54;;;;;;;5.55;1.98;;;;;;;;;;5155736;27;20360;-60
2022/09/14 11:04:33;;;;;;;3.28;1.42;;;;;;;;;;5156339;27;20094;-60
2022/09/14 11:07:11;;;;;;;3.65;2.00;;;;;;;;;;5155840;27;20023;-60
2022/09/14 11:09:41;;;;;;;4.82;2.10;;;;;;;;;;5155499;27;20022;-60
2022/09/14 11:12:16;;;;;;;3.53;1.70;;;;;;;;;;5155682;27;20487;-60
2022/09/14 11:14:54;;;;;;;5.93;1.98;;;;;;;;;;5156072;27;20019;-60
2022/09/14 11:17:33;;;;;;;3.70;2.45;;;;;;;;;;5155896;27;20109;-60
2022/09/14 11:20:17;;;;;;;3.10;2.30;;;;;;;;;;5155272;27;20023;-60
2022/09/14 11:22:57;;;;;;;3.22;2.10;;;;;;;;;;5155406;27;20110;-60
2022/09/14 11:25:26;;;;;;;5.57;2.35;;;;;;;;;;5155730;27;20038;-60
2022/09/14 11:28:05;;;;;;;2.88;2.00;;;;;;;;;;5155277;27;20027;-60
2022/09/14 11:30:42;;;;;;;5.65;1.73;;;;;;;;;;5155310;27;20027;-60
2022/09/14 11:33:18;;;;;;;3.13;1.88;;;;;;;;;;5155487;27;20035;-60
2022/09/14 11:35:47;;;;;;;5.25;1.23;;;;;;;;;;5155836;27;20368;-60
2022/09/14 11:38:20;;;;;;;3.17;1.65;;;;;;;;;;5156032;27;20019;-60
2022/09/14 11:40:49;;;;;;;4.10;2.33;;;;;;;;;;5157088;27;20022;-60
2022/09/14 11:43:18;;;;;;;2.78;1.48;;;;;;;;;;5159563;27;20512;-60
2022/09/14 11:45:47;;;;;;;2.85;1.27;;;;;;;;;;5159125;27;20122;-60
2022/09/14 11:48:16;;;;;;;2.17;1.30;;;;;;;;;;5159045;27;20015;-60
2022/09/14 11:50:44;;;;;;;2.58;1.58;;;;;;;;;;5159077;27;20392;-58
2022/09/14 11:53:10;;;;;;;3.30;2.25;;;;;;;;;;5158947;27;20176;-58
2022/09/14 11:55:40;;;;;;;1.83;1.20;;;;;;;;;;5159008;27;20023;-58
2022/09/14 11:58:07;;;;;;;2.90;1.30;;;;;;;;;;5158856;27;20019;-58
2022/09/14 12:00:44;;;;;;;2.60;1.30;;;;;;;;;;5159397;27;20119;-57
2022/09/14 12:03:20;;;;;;;3.88;1.52;;;;;;;;;;5159248;27;20129;-58
2022/09/14 12:05:47;;;;;;;2.90;1.38;;;;;;;;;;5158712;27;20346;-58
2022/09/14 12:08:27;;;;;;;4.63;1.70;;;;;;;;;;5158818;27;20033;-58
2022/09/14 12:11:03;;;;;;;2.92;1.55;;;;;;;;;;5159188;27;20027;-59
2022/09/14 12:13:30;;;;;;;6.55;2.22;;;;;;;;;;5158806;27;20092;-59
2022/09/14 12:16:03;;;;;;;2.90;1.42;;;;;;;;;;5158978;27;20027;-59
2022/09/14 12:18:29;;;;;;;3.10;1.85;;;;;;;;;;5158496;27;20022;-58
2022/09/14 12:21:02;;;;;;;4.18;1.38;;;;;;;;;;5158447;27;20435;-59
2022/09/14 12:23:40;;;;;;;5.55;2.17;;;;;;;;;;5158815;27;20076;-59
2022/09/14 12:26:09;;;;;;;2.95;1.70;;;;;;;;;;5158853;27;20026;-59
2022/09/14 12:28:38;;;;;;;3.42;1.50;;;;;;;;;;5158337;27;20487;-59
2022/09/14 12:31:04;;;;;;;2.63;1.83;;;;;;;;;;5158213;27;20027;-59
2022/09/14 12:33:30;;;;;;;3.90;2.50;;;;;;;;;;5158332;27;20080;-59
2022/09/14 12:35:57;;;;;;;6.03;2.20;;;;;;;;;;5158118;27;20027;-59
2022/09/14 12:38:28;;;;;;;3.80;1.80;;;;;;;;;;5157597;27;20480;-59
2022/09/14 12:40:55;;;;;;;2.40;1.63;;;;;;;;;;5158023;27;20030;-59
2022/09/14 12:43:33;;;;;;;3.00;1.40;;;;;;;;;;5157772;27;20022;-59
2022/09/14 12:46:03;;;;;;;1.70;0.98;;;;;;;;;;5157947;27;20027;-58
2022/09/14 12:48:47;;;;;;;2.97;1.30;;;;;;;;;;5157893;27;20046;-58
2022/09/14 12:51:33;;;;;;;2.63;1.67;;;;;;;;;;5157334;27;20050;-58
2022/09/14 12:54:08;;;;;;;4.00;1.60;;;;;;;;;;5158272;27;20030;-58
2022/09/14 12:56:42;;;;;;;4.40;1.90;;;;;;;;;;5157801;27;20029;-59
2022/09/14 12:59:15;;;;;;;5.18;1.73;;;;;;;;;;5157708;27;20106;-59
2022/09/14 13:01:51;;;;;;;3.95;2.15;;;;;;;;;;5157917;27;20037;-59
2022/09/14 13:04:24;;;;;;;8.60;1.92;;;;;;;;;;5158215;27;20449;-59
2022/09/14 13:06:51;;;;;;;2.70;1.65;;;;;;;;;;5157871;27;20452;-60
2022/09/14 13:09:21;;;;;;;4.18;2.17;;;;;;;;;;5157992;27;20021;-59
2022/09/14 13:12:08;;;;;;;3.88;2.47;;;;;;;;;;5158325;27;20049;-59
2022/09/14 13:14:37;;;;;;;2.20;1.40;;;;;;;;;;5158269;27;20118;-60
2022/09/14 13:17:04;;;;;;;2.83;1.92;;;;;;;;;;5157928;27;20333;-60
2022/09/14 13:19:31;;;;;;;6.68;2.20;;;;;;;;;;5157320;27;20026;-59
2022/09/14 13:21:58;;;;;;;3.15;2.17;;;;;;;;;;5157745;27;20445;-59
2022/09/14 13:24:26;;;;;;;5.78;1.85;;;;;;;;;;5157792;27;20054;-59
2022/09/14 13:26:54;;;;;;;3.75;1.98;;;;;;;;;;5157063;27;20456;-59
2022/09/14 13:29:20;;;;;;;2.92;2.05;;;;;;;;;;5157278;27;20023;-59
2022/09/14 13:31:47;;;;;;;4.88;2.10;;;;;;;;;;5157493;27;20361;-59
2022/09/14 13:34:33;;;;;;;4.57;2.60;;;;;;;;;;5157826;27;20027;-59
2022/09/14 13:36:59;;;;;;;5.32;1.60;;;;;;;;;;5156897;27;20030;-60
2022/09/14 13:39:29;;;;;;;5.70;2.20;;;;;;;;;;5156914;27;20342;-59
2022/09/14 13:41:57;;;;;;;5.50;2.40;;;;;;;;;;5156772;27;20026;-59
2022/09/14 13:44:24;;;;;;;5.13;2.22;;;;;;;;;;5157235;27;20027;-59
2022/09/14 13:46:51;;;;;;;3.42;1.63;;;;;;;;;;5156694;27;20039;-59
2022/09/14 13:49:17;;;;;;;3.53;2.00;;;;;;;;;;5156417;27;20476;-59
2022/09/14 13:51:43;;;;;;;5.20;2.33;;;;;;;;;;5156873;27;20382;-59
2022/09/14 13:54:26;;;;;;;5.28;2.38;;;;;;;;;;5157214;27;20015;-59
2022/09/14 13:57:22;;;;;;;2.42;1.58;;;;;;;;;;5156551;27;20056;-59
2022/09/14 14:00:16;;;;;;;6.40;1.80;;;;;;;;;;5143175;27;20045;-59
2022/09/14 14:02:50;;;;;;;3.05;1.05;;;;;;;;;;5156678;27;20037;-59
2022/09/14 14:05:27;;;;;;;3.80;1.95;;;;;;;;;;5156498;27;20022;-59
2022/09/14 14:07:57;;;;;;;2.35;1.33;;;;;;;;;;5156581;27;20019;-59
2022/09/14 14:10:23;;;;;;;1.73;1.13;;;;;;;;;;5156626;27;20360;-59
2022/09/14 14:12:49;;;;;;;3.10;1.65;;;;;;;;;;5156237;27;20035;-61
2022/09/14 14:15:18;;;;;;;2.13;1.30;;;;;;;;;;5157053;27;20022;-58
2022/09/14 14:17:44;;;;;;;2.75;1.27;;;;;;;;;;5156210;27;20405;-58
2022/09/14 14:20:29;;;;;;;2.20;1.17;;;;;;;;;;5156407;27;20026;-58
2022/09/14 14:22:57;;;;;;;2.17;1.45;;;;;;;;;;5155662;27;20497;-58
2022/09/14 14:25:53;;;;;;;5.20;1.50;;;;;;;;;;5156461;27;20051;-58
2022/09/14 14:28:27;;;;;;;1.50;1.00;;;;;;;;;;5154777;27;20031;-58
2022/09/14 14:30:54;;;;;;;3.88;1.33;;;;;;;;;;5155894;27;20508;-58
2022/09/14 14:33:21;;;;;;;2.28;1.17;;;;;;;;;;5155762;27;20479;-58
2022/09/14 14:35:47;;;;;;;1.85;1.13;;;;;;;;;;5155863;27;20345;-58
2022/09/14 14:38:14;;;;;;;4.50;1.30;;;;;;;;;;5156190;27;20360;-58
2022/09/14 14:40:41;;;;;;;4.45;1.20;;;;;;;;;;5156307;27;20030;-58
2022/09/14 14:43:09;;;;;;;1.80;1.02;;;;;;;;;;5155809;27;20118;-58
2022/09/14 14:45:36;;;;;;;2.53;1.50;;;;;;;;;;5155827;27;20475;-58
2022/09/14 14:48:02;;;;;;;6.85;1.17;;;;;;;;;;5155936;27;20026;-61
2022/09/14 14:50:34;;;;;;;1.00;0.68;;;;;;;;;;5155170;27;20470;-60
2022/09/14 14:53:01;;;;;;;2.10;1.23;;;;;;;;;;5155856;27;20352;-60
2022/09/14 14:55:31;;;;;;;2.40;1.73;;;;;;;;;;5155470;27;20019;-60
2022/09/14 14:58:00;;;;;;;2.55;1.00;;;;;;;;;;5155476;27;20513;-61